createdAt,value
2024-01-11T04:39:39.179Z,13.45
2024-01-11T04:42:42.370Z,14.23
2024-01-11T04:45:45.090Z,13.68
2024-01-11T04:48:50.111Z,14.98
2024-01-11T04:51:52.708Z,17.25
2024-01-11T04:54:55.767Z,13.57
2024-01-11T04:57:58.561Z,15.27
2024-01-11T05:01:01.687Z,13.77
2024-01-11T05:04:04.594Z,14.85
2024-01-11T05:07:07.418Z,15.90
2024-01-11T05:10:12.657Z,17.42
2024-01-11T05:13:15.556Z,15.88
2024-01-11T05:16:28.893Z,13.47
2024-01-11T05:19:31.754Z,17.37
2024-01-11T05:22:34.666Z,15.25
2024-01-11T05:25:37.901Z,15.70
2024-01-11T05:28:43.227Z,14.87
2024-01-11T05:31:46.888Z,14.40
2024-01-11T05:37:52.123Z,13.98
2024-01-11T05:40:55.100Z,12.77
2024-01-11T05:43:58.252Z,13.55
2024-01-11T05:47:00.769Z,13.25
2024-01-11T05:50:04.050Z,14.68
2024-01-11T05:53:07.083Z,12.55
2024-01-11T05:56:10.951Z,14.52
2024-01-11T05:59:13.734Z,13.10
2024-01-11T06:02:16.563Z,13.45
2024-01-11T06:05:19.406Z,14.27
2024-01-11T06:08:25.362Z,16.15
2024-01-11T06:11:29.351Z,15.80
2024-01-11T06:17:35.247Z,12.43
2024-01-11T06:20:37.899Z,13.45
2024-01-11T06:23:40.686Z,14.95
2024-01-11T06:26:43.485Z,16.77
2024-01-11T06:29:47.017Z,15.10
2024-01-11T06:32:49.761Z,13.30
2024-01-11T06:35:53.014Z,12.90
2024-01-11T06:38:55.819Z,15.00
2024-01-11T06:41:58.798Z,13.00
2024-01-11T06:45:02.325Z,12.35
2024-01-11T06:48:05.798Z,14.30
2024-01-11T06:51:09.226Z,12.68
2024-01-11T06:54:12.285Z,14.68
2024-01-11T06:57:15.949Z,14.60
2024-01-11T07:00:19.179Z,17.15
2024-01-11T07:03:22.073Z,15.27
2024-01-11T07:06:25.318Z,14.85
2024-01-11T07:09:28.025Z,14.13
2024-01-11T07:12:30.833Z,13.77
2024-01-11T07:15:33.557Z,13.70
2024-01-11T07:18:36.637Z,14.50
2024-01-11T07:21:39.127Z,14.30
2024-01-11T07:24:42.272Z,15.55
2024-01-11T07:27:44.919Z,12.13
2024-01-11T07:30:48.005Z,17.20
2024-01-11T07:39:56.744Z,14.48
2024-01-11T07:43:00.460Z,15.88
2024-01-11T07:46:04.629Z,16.48
2024-01-11T07:49:07.928Z,14.38
2024-01-11T07:52:10.926Z,15.15
2024-01-11T07:55:14.335Z,15.18
2024-01-11T08:01:20.800Z,14.50
2024-01-11T08:04:23.595Z,16.00
2024-01-11T08:07:27.386Z,16.53
2024-01-11T08:10:34.024Z,14.95
2024-01-11T08:13:38.982Z,16.42
2024-01-11T08:16:41.853Z,18.85
2024-01-11T08:19:44.702Z,15.73
2024-01-11T08:22:48.244Z,19.33
2024-01-11T08:25:50.729Z,19.17
2024-01-11T08:28:54.771Z,18.35
2024-01-11T08:31:57.623Z,15.60
2024-01-11T08:35:00.714Z,18.90
2024-01-11T08:38:04.315Z,17.98
2024-01-11T08:41:07.843Z,16.08
2024-01-11T08:44:10.577Z,16.37
2024-01-11T08:47:13.675Z,15.68
2024-01-11T08:50:18.417Z,16.27
2024-01-11T08:53:22.796Z,17.65
2024-01-11T08:56:26.587Z,13.73
2024-01-11T08:59:29.995Z,15.73
2024-01-11T09:02:32.911Z,13.45
2024-01-11T09:05:35.923Z,16.65
2024-01-11T09:08:38.423Z,13.50
2024-01-11T09:11:41.681Z,14.65
2024-01-11T09:14:44.806Z,18.00
2024-01-11T09:17:47.931Z,17.87
2024-01-11T09:20:50.995Z,14.87
2024-01-11T09:23:53.822Z,11.55
2024-01-11T09:26:56.839Z,14.60
2024-01-11T09:29:59.846Z,14.60
2024-01-11T09:33:02.678Z,14.90
2024-01-11T09:36:06.070Z,11.75
2024-01-11T09:39:09.500Z,11.90
2024-01-11T09:42:13.151Z,10.88
2024-01-11T09:45:17.978Z,11.57
2024-01-11T09:48:22.602Z,12.80
2024-01-11T09:51:27.005Z,11.88
2024-01-11T09:54:29.760Z,13.45
2024-01-11T09:57:36.021Z,12.33
2024-01-11T10:00:39.798Z,12.60
2024-01-11T10:06:52.295Z,12.55
2024-01-11T10:09:55.858Z,10.82
2024-01-11T10:12:58.627Z,9.82
2024-01-11T10:16:11.077Z,10.20
2024-01-11T10:19:16.981Z,9.30
2024-01-11T10:22:23.039Z,8.75
2024-01-11T10:25:28.235Z,6.70
2024-01-11T10:28:31.295Z,7.15
2024-01-11T10:31:35.957Z,6.87
2024-01-11T10:34:41.152Z,6.50
2024-01-11T10:37:47.730Z,8.00
2024-01-11T10:40:53.714Z,6.78
2024-01-11T10:43:59.082Z,8.32
2024-01-11T10:47:06.329Z,7.93
2024-01-11T10:50:11.612Z,8.30
2024-01-11T10:53:52.009Z,8.45
2024-01-11T10:56:56.631Z,6.82
2024-01-11T11:00:04.746Z,6.97
2024-01-11T11:03:08.408Z,7.68
2024-01-11T11:06:12.941Z,7.37
2024-01-11T11:09:17.213Z,8.40
2024-01-11T11:12:21.824Z,7.47
2024-01-11T11:15:25.414Z,8.38
2024-01-11T11:18:28.519Z,8.90
2024-01-11T11:21:32.094Z,10.68
2024-01-11T11:27:38.293Z,11.68
2024-01-11T11:30:43.451Z,9.85
2024-01-11T11:33:46.131Z,11.30
2024-01-11T11:36:51.304Z,11.27
2024-01-11T11:39:53.699Z,10.20
2024-01-11T11:42:57.574Z,10.43
2024-01-11T11:46:08.601Z,12.13
2024-01-11T11:49:13.191Z,10.95
2024-01-11T11:52:17.823Z,10.15
2024-01-11T11:55:23.146Z,8.75
2024-01-11T11:58:25.741Z,10.43
2024-01-11T12:01:29.379Z,9.55
2024-01-11T12:04:32.098Z,9.30
2024-01-11T12:07:34.842Z,10.98
2024-01-11T12:10:37.550Z,10.70
2024-01-11T12:13:41.328Z,9.45
2024-01-11T12:16:44.309Z,9.48
2024-01-11T12:19:47.149Z,11.97
2024-01-11T12:22:50.146Z,10.50
2024-01-11T12:25:53.192Z,9.73
2024-01-11T12:28:56.313Z,9.65
2024-01-11T12:32:02.125Z,9.43
2024-01-11T12:35:06.307Z,8.18
2024-01-11T12:38:10.472Z,8.50
2024-01-11T12:41:14.036Z,9.60
2024-01-11T12:44:18.568Z,10.90
2024-01-11T12:47:24.645Z,8.27
2024-01-11T12:50:33.993Z,10.32
2024-01-11T12:53:37.124Z,10.65
2024-01-11T12:56:46.026Z,8.93
2024-01-11T12:59:49.595Z,10.45
2024-01-11T13:02:55.079Z,10.60
2024-01-11T13:05:58.448Z,9.00
2024-01-11T13:09:02.335Z,9.98
2024-01-11T13:12:05.868Z,10.93
2024-01-11T13:15:08.711Z,11.00
2024-01-11T13:18:11.634Z,9.30
2024-01-11T13:21:14.756Z,10.37
2024-01-11T13:24:17.766Z,9.93
2024-01-11T13:27:20.487Z,8.80
2024-01-11T13:30:23.191Z,9.87
2024-01-11T13:33:25.922Z,12.33
2024-01-11T13:36:29.013Z,8.85
2024-01-11T13:39:31.552Z,9.37
2024-01-11T13:42:34.268Z,11.00
2024-01-11T13:45:37.868Z,10.95
2024-01-11T13:48:41.188Z,11.55
2024-01-11T13:51:53.351Z,9.77
2024-01-11T13:55:01.486Z,11.25
2024-01-11T13:58:04.864Z,12.88
2024-01-11T14:01:08.805Z,11.95
2024-01-11T14:04:11.837Z,11.95
2024-01-11T14:07:17.115Z,11.70
2024-01-11T14:10:20.267Z,11.95
2024-01-11T14:13:23.012Z,12.45
2024-01-11T14:16:28.090Z,11.93
2024-01-11T14:19:30.812Z,11.50
2024-01-11T14:22:33.883Z,10.57
2024-01-11T14:25:36.649Z,12.87
2024-01-11T14:28:43.684Z,15.48
2024-01-11T14:31:46.811Z,12.57
2024-01-11T14:34:50.451Z,9.82
2024-01-11T14:37:54.366Z,11.93
2024-01-11T14:40:57.832Z,11.63
2024-01-11T14:44:01.267Z,11.05
2024-01-11T14:47:04.993Z,10.73
2024-01-11T14:53:15.226Z,10.45
2024-01-11T14:56:18.171Z,11.05
2024-01-11T14:59:21.640Z,10.55
2024-01-11T15:02:24.106Z,10.35
2024-01-11T15:05:27.220Z,11.15
2024-01-11T15:08:30.716Z,10.38
2024-01-11T15:11:37.170Z,9.90
2024-01-11T15:14:42.044Z,10.65
2024-01-11T15:17:45.887Z,10.68
2024-01-11T15:20:48.804Z,11.55
2024-01-11T15:23:51.687Z,11.00
2024-01-11T15:26:54.897Z,9.77
2024-01-11T15:29:58.156Z,12.60
2024-01-11T15:33:02.300Z,12.73
2024-01-11T15:36:06.306Z,13.57
2024-01-11T15:39:20.436Z,12.93
2024-01-11T15:42:29.635Z,12.80
2024-01-11T15:45:34.443Z,14.98
2024-01-11T15:48:37.773Z,13.00
2024-01-11T15:51:40.322Z,13.65
2024-01-11T15:54:43.013Z,13.30
2024-01-11T15:57:45.431Z,12.73
2024-01-11T16:00:48.771Z,12.35
2024-01-11T16:03:53.330Z,13.30
2024-01-11T16:06:56.332Z,14.38
2024-01-11T16:09:59.661Z,16.23
2024-01-11T16:13:03.232Z,12.85
2024-01-11T16:16:06.229Z,17.67
2024-01-11T16:19:08.772Z,16.60
2024-01-11T16:22:11.781Z,14.68
2024-01-11T16:25:14.658Z,14.20
2024-01-11T16:28:17.386Z,12.30
2024-01-11T16:31:20.622Z,13.15
2024-01-11T16:34:23.450Z,13.48
2024-01-11T16:37:25.958Z,12.82
2024-01-11T16:40:29.524Z,14.25
2024-01-11T16:43:52.797Z,14.48
2024-01-11T16:46:55.647Z,12.40
